Nearby METAR Reports

 

KMRB - Martinsburg, West Virginia, USA
Distance from station: NNW 9mi, 14km
Updated: 05/20/2019 3:53pm
Clear
Clear
 Wind from W
Wind: W 18 mph , 30 km/h, Gust: 25 mph , 41 km/h
Temperature: 86°F , 30°C
Heat Index: 86°F , 30°C
Dew Point: 61°F , 16°C
Humidity: 43%
Barometer: 29.80 inHg , 1009.1 hPa
Clouds: Clear
Visibility: 10 miles , 16 km
2019/05/20 19:53 KMRB 201953Z AUTO 26016G22KT 10SM CLR 30/16 A2980 RMK AO2 PK WND 24026/1907 SLP084 T03000156
KOKV - Winchester Rgnl, Virginia, USA
Distance from station: SW 17mi, 28km
Updated: 05/20/2019 4:15pm
Clear
Clear
 Wind from W
Wind: W 20 mph , 31 km/h, Gust: 28 mph , 44 km/h
Temperature: 84°F , 29°C
Dew Point: 54°F , 12°C
Humidity: 35%
Barometer: 29.83 inHg , 1010.2 hPa
Clouds: Clear
Visibility: 10 miles , 16 km
2019/05/20 20:15 KOKV 202015Z AUTO 28017G24KT 10SM CLR 29/12 A2983 RMK AO2
 
KJYO - Leesburg/Godfrey, Virginia, USA
Distance from station: SE 23mi, 38km
Updated: 05/20/2019 4:15pm
Mostly cloudy
Mostly cloudy
 Wind from W
Wind: W 7 mph , 11 km/h
Temperature: 84°F , 29°C
Heat Index: 86°F , 30°C
Dew Point: 66°F , 19°C
Humidity: 55%
Barometer: 29.80 inHg , 1009.1 hPa
Clouds: Mostly cloudy
Visibility: 10 miles , 16 km
Cloud details: Mostly cloudy 6500 ft
Mostly cloudy 8000 ft
Mostly cloudy 10000 ft
2019/05/20 20:15 KJYO 202015Z AUTO 28006KT 10SM BKN065 BKN080 BKN100 29/19 A2980 RMK AO2
KFDK - Frederick, Maryland, USA
Distance from station: ENE 30mi, 48km
Updated: 05/20/2019 3:50pm
Partly cloudy
Partly cloudy
 Wind from W
Wind: W 18 mph , 30 km/h, Gust: 24 mph , 39 km/h
Temperature: 88°F , 31°C
Dew Point: 59°F , 15°C
Humidity: 38%
Barometer: 29.82 inHg , 1009.8 hPa
Clouds: Partly cloudy
Visibility: 10 miles , 16 km
Cloud details: Partly cloudy 6000 ft
Partly cloudy 12000 ft
2019/05/20 19:50 KFDK 201950Z 26016G21KT 10SM SCT060 SCT120 31/15 A2982
 
KHGR - Hagerstown, Maryland, USA
Distance from station: NNE 30mi, 48km
Updated: 05/20/2019 3:53pm
Few Clouds
Few Clouds
 Wind from W
Wind: W 18 mph , 30 km/h, Gust: 29 mph , 46 km/h
Temperature: 84°F , 29°C
Dew Point: 54°F , 12°C
Humidity: 35%
Barometer: 29.81 inHg , 1009.5 hPa
Clouds: Few Clouds
Visibility: 10 miles , 16 km
Cloud details: Few Clouds 7000 ft
2019/05/20 19:53 KHGR 201953Z 27016G25KT 10SM FEW070 29/12 A2981 RMK AO2 PK WND 28029/1918 SLP098 T02940122
KIAD - Wash Dc/Dulles, Virginia, USA
Distance from station: SE 34mi, 55km
Updated: 05/20/2019 3:52pm
Mostly cloudy
Mostly cloudy
 Wind from WSW
Wind: WSW 7 mph , 11 km/h
Temperature: 86°F , 30°C
Heat Index: 87°F , 31°C
Dew Point: 63°F , 17°C
Humidity: 46%
Barometer: 29.79 inHg , 1008.8 hPa
Clouds: Mostly cloudy
Visibility: 10 miles , 16 km
Cloud details: Mostly cloudy 6500 ft
Mostly cloudy 9000 ft
Mostly cloudy 11000 ft
Mostly cloudy 25000 ft
2019/05/20 19:52 KIAD 201952Z 25006KT 10SM BKN065CB BKN090 BKN110 BKN250 30/17 A2979 RMK AO2 SLP085 CB VC NW MOV NE TCU ALQDS T03000172
 
KRSP - Nsf Thurmont, Maryland, USA
Distance from station: NE 34mi, 55km
Updated: 05/18/2019 1:54pm
NOT Current

 
2019/05/18 17:54 KRSP 181754Z AUTO VRB04KTLS21/16 A3004 RMK AO2 SLP168 T02110161 10228 20172 $
KGAI - Gaithersburg, Maryland, USA
Distance from station: E 40mi, 64km
Updated: 05/20/2019 3:56pm
Mostly cloudy
Mostly cloudy
 Wind from W
Wind: W 10 mph , 17 km/h
Temperature: 88°F , 31°C
Heat Index: 90°F , 32°C
Dew Point: 64°F , 18°C
Humidity: 46%
Barometer: 29.81 inHg , 1009.5 hPa
Clouds: Mostly cloudy
Visibility: 10 miles , 16 km
Cloud details: Few Clouds 6500 ft
Mostly cloudy 11000 ft
2019/05/20 19:56 KGAI 201956Z AUTO 27009KT 10SM FEW065 BKN110 31/18 A2981 RMK AO2 SLP113 T03060183
 
KRYT - Fountain Dale, Pennsylvania, USA
Distance from station: NE 40mi, 64km
Updated: 11/13/2017 7:53am
NOT Current
Mist, Overcast
Mist, Overcast
 Wind from calm
Wind: Calm
Temperature: 37°F , 3°C
Dew Point: 34°F , 1°C
Humidity: 87%
Barometer: 30.31 inHg , 1026.4 hPa
Summary: Mist
Clouds: Overcast
Visibility: 5 miles , 8 km
Cloud details: Overcast 700 ft
2017/11/13 12:53 KRYT 131253Z AUTO 00000KT 5SM BR OVC007 03/01 A3031 RMK AO2 SLP275 T00280011 TSNO $
KHEF - Manassas Muni, Virginia, USA
Distance from station: SSE 44mi, 72km
Updated: 05/20/2019 3:56pm
Clear
Clear
 Wind from SW
Wind: SW 9 mph , 15 km/h
Temperature: 90°F , 32°C
Heat Index: 92°F , 33°C
Dew Point: 64°F , 18°C
Humidity: 43%
Barometer: 29.79 inHg , 1008.8 hPa
Clouds: Clear
Visibility: 10 miles , 16 km
2019/05/20 19:56 KHEF 201956Z 23008KT 200V260 10SM CLR 32/18 A2979 RMK AO2 SLP095 T03170183 PNO $
 
KHWY - Warrenton, Virginia, USA
Distance from station: SSE 50mi, 80km
Updated: 05/20/2019 4:15pm
Clear
Clear
 Wind from SW
Wind: SW 10 mph , 17 km/h, Gust: 17 mph , 28 km/h
Temperature: 90°F , 32°C
Dew Point: 55°F , 13°C
Humidity: 31%
Barometer: 29.79 inHg , 1008.8 hPa
Clouds: Clear
Visibility: 10 miles , 16 km
2019/05/20 20:15 KHWY 202015Z AUTO 23009G15KT 10SM CLR 32/13 A2979 RMK AO2 T03180134